Time;durP1;ratioP1;P1;durP2;ratioP2;P2;SDS_P1;SDS_P2;PMS_P1;PMS_P2;Temp;Humidity;BMP_temperature;BMP_pressure;BME280_temperature;BME280_humidity;BME280_pressure;Samples;Min_cycle;Max_cycle;Signal;HPM_P1;HPM_P2
2021/07/01 00:01:58;;;;;;;;;;;16.60;99.90;;;;;;5028444;28;19929;-71
2021/07/01 00:04:24;;;;;;;;;;;16.60;99.90;;;;;;5027532;28;19929;-74
2021/07/01 00:06:52;;;;;;;;;;;16.60;99.90;;;;;;5024509;28;20027;-74
2021/07/01 00:09:21;;;;;;;;;;;16.60;99.90;;;;;;5028713;28;19948;-74
2021/07/01 00:11:49;;;;;;;;;;;16.60;99.90;;;;;;5027627;28;19933;-74
2021/07/01 00:14:19;;;;;;;;;;;16.70;99.90;;;;;;5030549;28;19925;-74
2021/07/01 00:16:47;;;;;;;;;;;16.70;99.90;;;;;;5029138;28;20345;-74
2021/07/01 00:19:14;;;;;;;;;;;16.60;99.90;;;;;;5025556;28;20028;-74
2021/07/01 00:21:41;;;;;;;;;;;16.60;99.90;;;;;;5026064;28;19933;-74
2021/07/01 00:24:07;;;;;;;;;;;16.60;99.90;;;;;;5026768;28;19960;-74
2021/07/01 00:26:34;;;;;;;;;;;16.60;99.90;;;;;;5027850;28;20264;-74
2021/07/01 00:29:01;;;;;;;;;;;16.60;99.90;;;;;;5028276;28;19991;-73
2021/07/01 00:31:30;;;;;;;;;;;16.60;99.90;;;;;;5027755;28;19925;-74
2021/07/01 00:33:57;;;;;;;;;;;16.60;99.90;;;;;;5027246;28;19951;-74
2021/07/01 00:36:24;;;;;;;;;;;16.50;99.90;;;;;;5027602;28;19933;-74
2021/07/01 00:38:52;;;;;;;;;;;16.60;99.90;;;;;;5027621;28;19937;-74
2021/07/01 00:41:19;;;;;;;;;;;16.50;99.90;;;;;;5027318;28;19936;-74
2021/07/01 00:43:46;;;;;;;;;;;16.40;99.90;;;;;;5027921;28;19929;-74
2021/07/01 00:46:13;;;;;;;;;;;16.50;99.90;;;;;;5029549;28;19932;-73
2021/07/01 00:48:41;;;;;;;;;;;16.40;99.90;;;;;;5026336;28;20237;-74
2021/07/01 00:51:08;;;;;;;;;;;16.50;99.90;;;;;;5028508;28;19925;-74
2021/07/01 00:53:35;;;;;;;;;;;16.40;99.90;;;;;;5027517;28;20379;-73
2021/07/01 00:56:03;;;;;;;;;;;16.40;99.90;;;;;;5024989;28;20307;-73
2021/07/01 00:58:30;;;;;;;;;;;16.50;99.90;;;;;;5025411;28;19926;-74
2021/07/01 01:01:01;;;;;;;;;;;16.50;99.90;;;;;;5026022;28;19933;-74
2021/07/01 01:03:32;;;;;;;;;;;16.50;99.90;;;;;;5025596;28;19964;-74
2021/07/01 01:05:59;;;;;;;;;;;16.50;99.90;;;;;;5042896;28;19933;-73
2021/07/01 01:08:26;;;;;;;;;;;16.50;99.90;;;;;;5028841;28;19925;-74
2021/07/01 01:10:53;;;;;;;;;;;16.50;99.90;;;;;;5029552;28;19929;-75
2021/07/01 01:13:26;;;;;;;;;;;16.40;99.90;;;;;;5026238;28;19995;-74
2021/07/01 01:15:53;;;;;;;;;;;16.50;99.90;;;;;;5027394;28;19965;-74
2021/07/01 01:18:20;;;;;;;;;;;16.40;99.90;;;;;;5025198;28;19933;-75
2021/07/01 01:20:51;;;;;;;;;;;16.50;99.90;;;;;;5016189;28;20288;-74
2021/07/01 01:23:19;;;;;;;;;;;16.50;99.90;;;;;;5029267;28;20377;-74
2021/07/01 01:25:46;;;;;;;;;;;16.50;99.90;;;;;;5026713;28;19940;-74
2021/07/01 01:28:14;;;;;;;;;;;16.50;99.90;;;;;;5029917;28;19925;-75
2021/07/01 01:30:40;;;;;;;;;;;16.40;99.90;;;;;;5029082;28;19932;-75
2021/07/01 01:33:08;;;;;;;;;;;16.40;99.90;;;;;;5028173;28;19972;-75
2021/07/01 01:35:35;;;;;;;;;;;16.50;99.90;;;;;;5026292;28;19925;-74
2021/07/01 01:38:02;;;;;;;;;;;16.40;99.90;;;;;;5027063;28;19936;-74
2021/07/01 01:40:29;;;;;;;;;;;16.40;99.90;;;;;;5026982;28;19987;-74
2021/07/01 01:42:56;;;;;;;;;;;16.50;99.90;;;;;;5027989;28;19932;-74
2021/07/01 01:45:23;;;;;;;;;;;16.50;99.90;;;;;;5029069;28;19929;-74
2021/07/01 01:47:50;;;;;;;;;;;16.50;99.90;;;;;;5042166;28;19960;-74
2021/07/01 01:50:18;;;;;;;;;;;16.40;99.90;;;;;;5028088;28;20398;-75
2021/07/01 01:52:52;;;;;;;;;;;16.40;99.90;;;;;;5026324;28;19936;-74
2021/07/01 01:55:19;;;;;;;;;;;16.50;99.90;;;;;;5026676;28;19933;-74
2021/07/01 01:57:47;;;;;;;;;;;16.50;99.90;;;;;;5029577;28;20372;-74
2021/07/01 02:00:15;;;;;;;;;;;16.50;99.90;;;;;;5027688;28;19951;-75
2021/07/01 02:02:42;;;;;;;;;;;16.50;99.90;;;;;;5043131;28;19934;-74
2021/07/01 02:05:10;;;;;;;;;;;16.50;99.90;;;;;;5029310;28;19932;-75
2021/07/01 02:07:37;;;;;;;;;;;16.50;99.90;;;;;;5026982;28;20339;-74
2021/07/01 02:10:05;;;;;;;;;;;16.50;99.90;;;;;;5027433;28;19925;-74
2021/07/01 02:12:32;;;;;;;;;;;16.60;99.90;;;;;;5030471;28;19933;-74
2021/07/01 02:14:59;;;;;;;;;;;16.50;99.90;;;;;;5032285;28;20327;-74
2021/07/01 02:17:26;;;;;;;;;;;16.60;99.90;;;;;;5025046;28;19929;-74
2021/07/01 02:19:53;;;;;;;;;;;16.60;99.90;;;;;;5033282;28;19936;-75
2021/07/01 02:22:20;;;;;;;;;;;16.50;99.90;;;;;;5032485;28;20020;-74
2021/07/01 02:24:47;;;;;;;;;;;16.50;99.90;;;;;;5032878;28;19995;-74
2021/07/01 02:27:13;;;;;;;;;;;16.60;99.90;;;;;;5031210;28;19925;-74
2021/07/01 02:29:40;;;;;;;;;;;16.60;99.90;;;;;;5029513;28;20406;-75
2021/07/01 02:32:07;;;;;;;;;;;16.50;99.90;;;;;;5030328;28;19933;-74
2021/07/01 02:34:39;;;;;;;;;;;16.50;99.90;;;;;;5046690;28;19937;-74
2021/07/01 02:37:10;;;;;;;;;;;16.50;99.90;;;;;;5031528;28;19979;-74
2021/07/01 02:39:37;;;;;;;;;;;16.50;99.90;;;;;;5032710;28;19929;-75
2021/07/01 02:42:04;;;;;;;;;;;16.50;99.90;;;;;;5045832;28;19936;-74
2021/07/01 02:44:31;;;;;;;;;;;16.50;99.90;;;;;;5028364;28;19925;-74
2021/07/01 02:46:58;;;;;;;;;;;16.60;99.90;;;;;;5028648;28;19940;-75
2021/07/01 02:49:25;;;;;;;;;;;16.50;99.90;;;;;;5030196;28;19925;-75
2021/07/01 02:51:54;;;;;;;;;;;16.50;99.90;;;;;;5044674;28;19929;-74
2021/07/01 02:54:21;;;;;;;;;;;16.50;99.90;;;;;;5028580;28;19925;-74
2021/07/01 02:56:48;;;;;;;;;;;16.50;99.90;;;;;;5028682;28;20468;-75
2021/07/01 02:59:16;;;;;;;;;;;16.40;99.90;;;;;;5029486;28;19937;-74
2021/07/01 03:01:43;;;;;;;;;;;16.40;99.90;;;;;;5028688;28;20295;-74
2021/07/01 03:04:10;;;;;;;;;;;16.40;99.90;;;;;;5027996;28;21761;-75
2021/07/01 03:06:37;;;;;;;;;;;16.50;99.90;;;;;;5026928;28;19932;-74
2021/07/01 03:09:04;;;;;;;;;;;16.40;99.90;;;;;;5029061;28;19994;-73
2021/07/01 03:11:32;;;;;;;;;;;16.50;99.90;;;;;;5030182;28;19947;-73
2021/07/01 03:13:59;;;;;;;;;;;16.40;99.90;;;;;;5030041;28;19925;-73
2021/07/01 03:16:26;;;;;;;;;;;16.40;99.90;;;;;;5031249;28;22271;-74
2021/07/01 03:18:53;;;;;;;;;;;16.40;99.90;;;;;;5026128;28;20011;-72
2021/07/01 03:21:21;;;;;;;;;;;16.40;99.90;;;;;;5028466;28;19983;-73
2021/07/01 03:23:48;;;;;;;;;;;16.40;99.90;;;;;;5028194;28;20397;-73
2021/07/01 03:26:16;;;;;;;;;;;16.50;99.90;;;;;;5027809;28;19933;-73
2021/07/01 03:28:43;;;;;;;;;;;16.40;99.90;;;;;;5027546;28;19936;-73
2021/07/01 03:31:10;;;;;;;;;;;16.40;99.90;;;;;;5030649;28;19947;-73
2021/07/01 03:33:37;;;;;;;;;;;16.50;99.90;;;;;;5022809;28;19952;-73
2021/07/01 03:36:07;;;;;;;;;;;16.40;99.90;;;;;;5039827;28;19937;-76
2021/07/01 03:38:35;;;;;;;;;;;16.40;99.90;;;;;;5030281;28;19933;-74
2021/07/01 03:41:03;;;;;;;;;;;16.40;99.90;;;;;;5027599;28;19929;-73
2021/07/01 03:43:30;;;;;;;;;;;16.50;99.90;;;;;;5028783;28;19937;-73
2021/07/01 03:45:57;;;;;;;;;;;16.40;99.90;;;;;;5027312;28;19928;-73
2021/07/01 03:48:24;;;;;;;;;;;16.40;99.90;;;;;;5025539;28;20356;-73
2021/07/01 03:50:51;;;;;;;;;;;16.40;99.90;;;;;;5030975;28;20278;-74
2021/07/01 03:53:18;;;;;;;;;;;16.40;99.90;;;;;;5030873;28;19925;-73
2021/07/01 03:55:44;;;;;;;;;;;16.40;99.90;;;;;;5044774;28;19954;-73
2021/07/01 03:58:11;;;;;;;;;;;16.50;99.90;;;;;;5028916;28;19932;-73
2021/07/01 04:00:38;;;;;;;;;;;16.40;99.90;;;;;;5043709;28;20276;-73
2021/07/01 04:03:05;;;;;;;;;;;16.40;99.90;;;;;;5027491;28;19991;-73
2021/07/01 04:05:32;;;;;;;;;;;16.40;99.90;;;;;;5027389;28;20311;-73
2021/07/01 04:07:59;;;;;;;;;;;16.40;99.90;;;;;;5027344;28;20379;-73
2021/07/01 04:10:25;;;;;;;;;;;16.40;99.90;;;;;;5030145;28;19932;-73
2021/07/01 04:12:52;;;;;;;;;;;16.40;99.90;;;;;;5031404;28;19987;-74
2021/07/01 04:15:19;;;;;;;;;;;16.40;99.90;;;;;;5029902;28;19940;-74
2021/07/01 04:17:46;;;;;;;;;;;16.40;99.90;;;;;;5027700;28;19929;-73
2021/07/01 04:20:13;;;;;;;;;;;16.40;99.90;;;;;;5028064;28;19939;-74
2021/07/01 04:22:40;;;;;;;;;;;16.40;99.90;;;;;;5027815;28;19933;-74
2021/07/01 04:25:07;;;;;;;;;;;16.40;99.90;;;;;;5029200;28;19925;-73
2021/07/01 04:27:33;;;;;;;;;;;16.40;99.90;;;;;;5027932;28;20300;-73
2021/07/01 04:30:01;;;;;;;;;;;16.40;99.90;;;;;;5028789;28;20048;-73
2021/07/01 04:32:27;;;;;;;;;;;16.40;99.90;;;;;;5029412;28;19925;-74
2021/07/01 04:34:54;;;;;;;;;;;16.40;99.90;;;;;;5028708;28;19941;-74
2021/07/01 04:37:21;;;;;;;;;;;16.40;99.90;;;;;;5027497;28;19944;-74
2021/07/01 04:39:48;;;;;;;;;;;16.40;99.90;;;;;;5026999;28;20392;-74
2021/07/01 04:42:18;;;;;;;;;;;16.40;99.90;;;;;;5028497;28;19935;-75
2021/07/01 04:44:45;;;;;;;;;;;16.40;99.90;;;;;;5028078;28;19925;-74
2021/07/01 04:47:12;;;;;;;;;;;16.40;99.90;;;;;;5026982;28;19925;-74
2021/07/01 04:49:39;;;;;;;;;;;16.30;99.90;;;;;;5043057;28;20411;-73
2021/07/01 04:52:05;;;;;;;;;;;16.30;99.90;;;;;;5025478;28;19933;-74
2021/07/01 04:54:32;;;;;;;;;;;16.30;99.90;;;;;;5028521;28;19933;-74
2021/07/01 04:56:59;;;;;;;;;;;16.30;99.90;;;;;;5041916;28;19937;-74
2021/07/01 04:59:26;;;;;;;;;;;16.30;99.90;;;;;;5044370;28;19925;-74
2021/07/01 05:01:55;;;;;;;;;;;16.30;99.90;;;;;;5028102;28;19937;-73
2021/07/01 05:04:22;;;;;;;;;;;16.40;99.90;;;;;;5041575;28;19979;-73
2021/07/01 05:06:49;;;;;;;;;;;16.40;99.90;;;;;;5028167;28;19940;-73
2021/07/01 05:09:16;;;;;;;;;;;16.40;99.90;;;;;;5027649;28;20495;-74
2021/07/01 05:11:43;;;;;;;;;;;16.40;99.90;;;;;;5024252;28;19932;-73
2021/07/01 05:14:10;;;;;;;;;;;16.40;99.90;;;;;;5027975;28;20336;-73
2021/07/01 05:16:37;;;;;;;;;;;16.40;99.90;;;;;;5027400;28;19936;-73
2021/07/01 05:19:04;;;;;;;;;;;16.40;99.90;;;;;;5025503;28;19952;-74
2021/07/01 05:21:31;;;;;;;;;;;16.40;99.90;;;;;;5029434;28;19998;-73
2021/07/01 05:23:58;;;;;;;;;;;16.40;99.90;;;;;;5029392;28;20318;-73
2021/07/01 05:26:24;;;;;;;;;;;16.40;99.90;;;;;;5026811;28;19982;-73
2021/07/01 05:28:51;;;;;;;;;;;16.40;99.90;;;;;;5028918;28;19960;-72
2021/07/01 05:31:38;;;;;;;;;;;16.30;99.90;;;;;;5026177;28;20384;-73
2021/07/01 05:34:05;;;;;;;;;;;16.40;99.90;;;;;;5024929;28;20582;-73
2021/07/01 05:36:32;;;;;;;;;;;16.40;99.90;;;;;;5026261;28;20293;-72
2021/07/01 05:38:59;;;;;;;;;;;16.50;99.90;;;;;;5025995;28;19925;-72
2021/07/01 05:41:26;;;;;;;;;;;16.50;99.90;;;;;;5027640;28;19929;-72
2021/07/01 05:43:53;;;;;;;;;;;16.60;99.90;;;;;;5029652;28;19933;-73
2021/07/01 05:46:20;;;;;;;;;;;16.60;99.90;;;;;;5029331;28;19925;-72
2021/07/01 05:48:47;;;;;;;;;;;16.70;99.90;;;;;;5028383;28;19971;-73
2021/07/01 05:51:16;;;;;;;;;;;16.60;99.90;;;;;;5027222;28;20376;-72
2021/07/01 05:56:41;;;;;;;;;;;16.50;99.90;;;;;;5021567;28;19925;-72
2021/07/01 05:59:09;;;;;;;;;;;16.50;99.90;;;;;;5027627;28;20345;-73
2021/07/01 06:01:36;;;;;;;;;;;16.60;99.90;;;;;;5028782;28;19932;-73
2021/07/01 06:04:04;;;;;;;;;;;16.60;99.90;;;;;;5029774;28;19969;-72
2021/07/01 06:06:33;;;;;;;;;;;16.60;99.90;;;;;;5031414;28;19933;-72
2021/07/01 06:09:00;;;;;;;;;;;16.60;99.90;;;;;;5032249;28;19959;-72
2021/07/01 06:11:28;;;;;;;;;;;16.60;99.90;;;;;;5031102;28;20026;-72
2021/07/01 06:13:55;;;;;;;;;;;16.60;99.90;;;;;;5032052;28;19940;-72
2021/07/01 06:16:23;;;;;;;;;;;16.60;99.90;;;;;;5032548;28;20300;-75
2021/07/01 06:18:52;;;;;;;;;;;16.60;99.90;;;;;;5029709;28;20015;-75
2021/07/01 06:21:20;;;;;;;;;;;16.60;99.90;;;;;;5031188;28;19929;-74
2021/07/01 06:23:47;;;;;;;;;;;16.60;99.90;;;;;;5029623;28;19929;-75
2021/07/01 06:26:15;;;;;;;;;;;16.60;99.90;;;;;;5031357;28;19964;-75
2021/07/01 06:28:42;;;;;;;;;;;16.60;99.90;;;;;;5032557;28;19929;-75
2021/07/01 06:31:10;;;;;;;;;;;16.60;99.90;;;;;;5031016;28;19925;-74
2021/07/01 06:33:41;;;;;;;;;;;16.60;99.90;;;;;;5030918;28;19933;-74
2021/07/01 06:36:08;;;;;;;;;;;16.50;99.90;;;;;;5029684;28;19925;-74
2021/07/01 06:38:38;;;;;;;;;;;16.60;99.90;;;;;;5030021;28;19948;-74
2021/07/01 06:41:09;;;;;;;;;;;16.70;99.90;;;;;;5044290;28;19939;-75
2021/07/01 06:43:36;;;;;;;;;;;16.90;99.90;;;;;;5033086;28;20411;-74
2021/07/01 06:46:04;;;;;;;;;;;16.90;99.90;;;;;;5029742;28;19936;-75
2021/07/01 06:48:31;;;;;;;;;;;16.80;99.90;;;;;;5028703;28;19931;-75
2021/07/01 06:50:58;;;;;;;;;;;16.80;99.90;;;;;;5021682;28;20318;-75
2021/07/01 06:53:26;;;;;;;;;;;16.70;99.90;;;;;;5030196;28;19925;-72
2021/07/01 06:55:53;;;;;;;;;;;16.80;99.90;;;;;;5029336;28;19940;-72
2021/07/01 06:58:20;;;;;;;;;;;16.70;99.90;;;;;;5031777;28;20292;-73
2021/07/01 07:00:48;;;;;;;;;;;16.70;99.90;;;;;;5031381;28;20323;-73
2021/07/01 07:03:17;;;;;;;;;;;16.70;99.90;;;;;;5030772;28;19929;-72
2021/07/01 07:05:45;;;;;;;;;;;16.80;99.90;;;;;;5031051;28;19929;-72
2021/07/01 07:08:12;;;;;;;;;;;16.80;99.90;;;;;;5027294;28;19936;-72
2021/07/01 07:10:41;;;;;;;;;;;16.80;99.90;;;;;;5027918;28;20040;-73
2021/07/01 07:13:08;;;;;;;;;;;16.80;99.90;;;;;;5030886;28;19925;-73
2021/07/01 07:15:35;;;;;;;;;;;16.90;99.90;;;;;;5031028;28;19925;-72
2021/07/01 07:18:09;;;;;;;;;;;16.90;99.90;;;;;;5028048;28;19936;-72
2021/07/01 07:20:39;;;;;;;;;;;16.80;99.90;;;;;;5031794;28;20017;-72
2021/07/01 07:23:07;;;;;;;;;;;16.80;99.90;;;;;;5030978;28;19985;-72
2021/07/01 07:25:40;;;;;;;;;;;16.90;99.90;;;;;;5030253;28;20356;-72
2021/07/01 07:28:08;;;;;;;;;;;16.90;99.90;;;;;;5031275;28;19940;-72
2021/07/01 07:30:35;;;;;;;;;;;17.00;99.90;;;;;;5027850;28;19940;-72
2021/07/01 07:33:06;;;;;;;;;;;16.80;99.90;;;;;;5028392;28;19996;-72
2021/07/01 07:35:33;;;;;;;;;;;16.90;99.90;;;;;;5028963;28;19983;-72
2021/07/01 07:38:00;;;;;;;;;;;16.90;99.90;;;;;;5041716;28;19933;-72
2021/07/01 07:40:27;;;;;;;;;;;16.90;99.90;;;;;;5027472;28;21828;-72
2021/07/01 07:42:54;;;;;;;;;;;16.90;99.90;;;;;;5029552;28;19925;-72
2021/07/01 07:45:21;;;;;;;;;;;16.90;99.90;;;;;;5028307;28;19925;-74
2021/07/01 07:47:48;;;;;;;;;;;16.90;99.90;;;;;;5013649;28;20036;-73
2021/07/01 07:50:17;;;;;;;;;;;16.80;99.90;;;;;;5016897;28;19980;-73
2021/07/01 07:52:45;;;;;;;;;;;16.90;99.90;;;;;;5033048;28;20396;-73
2021/07/01 07:55:14;;;;;;;;;;;16.90;99.90;;;;;;5017889;28;20901;-73
2021/07/01 07:57:43;;;;;;;;;;;16.90;99.90;;;;;;5017891;28;19929;-73
2021/07/01 08:00:10;;;;;;;;;;;16.90;99.90;;;;;;5017751;28;19941;-73
2021/07/01 08:02:41;;;;;;;;;;;16.90;99.90;;;;;;5016970;28;19933;-73
2021/07/01 08:05:08;;;;;;;;;;;17.00;99.90;;;;;;5017753;28;19933;-73
2021/07/01 08:07:36;;;;;;;;;;;16.90;99.90;;;;;;5031468;28;19940;-73
2021/07/01 08:10:13;;;;;;;;;;;16.90;99.90;;;;;;5018385;28;19929;-73
2021/07/01 08:12:41;;;;;;;;;;;17.00;99.90;;;;;;5030845;28;19934;-73
2021/07/01 08:15:12;;;;;;;;;;;17.00;99.90;;;;;;5018129;28;20487;-73
2021/07/01 08:17:43;;;;;;;;;;;17.00;99.90;;;;;;5016737;28;20499;-73
2021/07/01 08:20:10;;;;;;;;;;;17.00;99.90;;;;;;5015845;28;19933;-73
2021/07/01 08:22:41;;;;;;;;;;;17.10;99.90;;;;;;5016900;28;19940;-73
2021/07/01 08:25:08;;;;;;;;;;;17.10;99.90;;;;;;5016728;28;20419;-73
2021/07/01 08:27:36;;;;;;;;;;;17.10;99.90;;;;;;5020313;28;19955;-72
2021/07/01 08:30:04;;;;;;;;;;;17.10;99.90;;;;;;5014303;28;20783;-73
2021/07/01 08:32:32;;;;;;;;;;;17.20;99.90;;;;;;5015878;28;19971;-73
2021/07/01 08:35:02;;;;;;;;;;;17.20;99.90;;;;;;5016971;28;19995;-73
2021/07/01 08:37:29;;;;;;;;;;;17.20;99.90;;;;;;5032240;28;19936;-72
2021/07/01 08:40:00;;;;;;;;;;;17.10;99.90;;;;;;5015896;28;19992;-71
2021/07/01 08:42:35;;;;;;;;;;;17.10;99.90;;;;;;5040886;28;19934;-72
2021/07/01 08:45:07;;;;;;;;;;;17.10;99.90;;;;;;5018110;28;19929;-72
2021/07/01 08:47:34;;;;;;;;;;;17.00;99.90;;;;;;5014412;28;20423;-72
2021/07/01 08:50:07;;;;;;;;;;;17.00;99.90;;;;;;5014075;28;20372;-73
2021/07/01 08:52:38;;;;;;;;;;;16.90;99.90;;;;;;5014425;28;19933;-72
2021/07/01 08:55:25;;;;;;;;;;;16.50;99.90;;;;;;5017927;28;20294;-72
2021/07/01 08:57:53;;;;;;;;;;;16.30;99.90;;;;;;5015735;28;19933;-72
2021/07/01 09:00:20;;;;;;;;;;;16.20;99.90;;;;;;5030579;28;19929;-72
2021/07/01 09:02:59;;;;;;;;;;;16.20;99.90;;;;;;5015267;28;19984;-73
2021/07/01 09:05:27;;;;;;;;;;;16.30;99.90;;;;;;5016243;28;19933;-73
2021/07/01 09:07:54;;;;;;;;;;;16.20;99.90;;;;;;5015916;28;21239;-73
2021/07/01 09:10:22;;;;;;;;;;;16.30;99.90;;;;;;5017903;28;20278;-73
2021/07/01 09:12:53;;;;;;;;;;;16.30;99.90;;;;;;5016419;28;19929;-73
2021/07/01 09:15:20;;;;;;;;;;;16.40;99.90;;;;;;5014296;28;19930;-73
2021/07/01 09:17:52;;;;;;;;;;;16.60;99.90;;;;;;5017529;28;20006;-71
2021/07/01 09:20:21;;;;;;;;;;;16.60;99.90;;;;;;5020219;28;19926;-76
2021/07/01 09:22:48;;;;;;;;;;;16.70;99.90;;;;;;5046380;28;20353;-75
2021/07/01 09:25:16;;;;;;;;;;;16.70;99.90;;;;;;5018504;28;20323;-75
2021/07/01 09:27:44;;;;;;;;;;;16.80;99.90;;;;;;5021559;28;19987;-76
2021/07/01 09:30:12;;;;;;;;;;;17.00;99.90;;;;;;5017331;28;19933;-76
2021/07/01 09:32:40;;;;;;;;;;;17.00;99.90;;;;;;5020083;28;19991;-75
2021/07/01 09:35:08;;;;;;;;;;;17.00;99.90;;;;;;5018692;28;19957;-75
2021/07/01 09:37:39;;;;;;;;;;;17.10;99.90;;;;;;5033749;28;20016;-75
2021/07/01 09:40:07;;;;;;;;;;;17.00;99.90;;;;;;5021391;28;19933;-75
2021/07/01 09:42:35;;;;;;;;;;;17.00;99.90;;;;;;5018395;28;19932;-75
2021/07/01 09:45:06;;;;;;;;;;;17.10;99.90;;;;;;5019161;28;20364;-76
2021/07/01 09:47:36;;;;;;;;;;;17.30;99.90;;;;;;5019556;28;20529;-77
2021/07/01 09:50:03;;;;;;;;;;;17.30;99.90;;;;;;5020139;28;19930;-76
2021/07/01 09:52:34;;;;;;;;;;;17.30;99.90;;;;;;5019562;28;19933;-77
2021/07/01 09:55:03;;;;;;;;;;;17.50;99.90;;;;;;5019866;28;19929;-77
2021/07/01 09:57:34;;;;;;;;;;;17.60;99.90;;;;;;5021351;28;19934;-78
2021/07/01 10:00:04;;;;;;;;;;;17.60;99.90;;;;;;5021385;28;20276;-78
2021/07/01 10:02:31;;;;;;;;;;;17.60;99.90;;;;;;5012836;28;20490;-77
2021/07/01 10:04:58;;;;;;;;;;;17.80;99.90;;;;;;5013958;28;19930;-78
2021/07/01 10:07:25;;;;;;;;;;;17.80;99.90;;;;;;5027747;28;20327;-77
2021/07/01 10:09:54;;;;;;;;;;;17.90;99.90;;;;;;5013250;28;20356;-77
2021/07/01 10:12:26;;;;;;;;;;;17.80;99.90;;;;;;5013223;28;19929;-78
2021/07/01 10:15:00;;;;;;;;;;;17.90;99.90;;;;;;5012377;28;19936;-77
2021/07/01 10:17:27;;;;;;;;;;;18.10;99.90;;;;;;5014082;28;20049;-78
2021/07/01 10:20:06;;;;;;;;;;;17.70;99.90;;;;;;5026449;28;20000;-77
2021/07/01 10:22:34;;;;;;;;;;;17.60;99.90;;;;;;5012044;28;20405;-77
2021/07/01 10:25:02;;;;;;;;;;;17.90;99.90;;;;;;5009838;28;20320;-78
2021/07/01 10:27:39;;;;;;;;;;;17.90;99.90;;;;;;5012054;28;19949;-76
2021/07/01 10:30:13;;;;;;;;;;;18.00;99.90;;;;;;5012304;28;19972;-77
2021/07/01 10:32:41;;;;;;;;;;;17.60;99.90;;;;;;5012845;28;19929;-77
2021/07/01 10:35:19;;;;;;;;;;;17.60;99.90;;;;;;5025663;28;19977;-77
2021/07/01 10:38:06;;;;;;;;;;;17.70;99.90;;;;;;5014196;28;19940;-79
2021/07/01 10:40:35;;;;;;;;;;;17.80;99.90;;;;;;5008901;28;19936;-78
2021/07/01 10:43:02;;;;;;;;;;;17.80;99.90;;;;;;5013217;28;19934;-78
2021/07/01 10:45:29;;;;;;;;;;;17.60;99.90;;;;;;5010272;28;19983;-78
2021/07/01 10:48:13;;;;;;;;;;;17.60;99.90;;;;;;5027227;28;19936;-78
2021/07/01 10:50:40;;;;;;;;;;;17.60;99.90;;;;;;5012768;28;19960;-76
2021/07/01 10:53:25;;;;;;;;;;;17.50;99.90;;;;;;5012002;28;20404;-78
2021/07/01 10:55:53;;;;;;;;;;;17.60;99.90;;;;;;5011066;28;20002;-78
2021/07/01 10:58:20;;;;;;;;;;;17.60;99.90;;;;;;5012518;28;20290;-78
2021/07/01 11:00:51;;;;;;;;;;;17.50;99.90;;;;;;5010342;28;19933;-79
2021/07/01 11:03:30;;;;;;;;;;;17.50;99.90;;;;;;5025867;28;20008;-78
2021/07/01 11:05:57;;;;;;;;;;;17.60;99.90;;;;;;5028241;28;20288;-78
2021/07/01 11:08:31;;;;;;;;;;;17.60;99.90;;;;;;5011109;28;19932;-76
2021/07/01 11:10:59;;;;;;;;;;;17.60;99.90;;;;;;5010406;28;19943;-76
2021/07/01 11:13:52;;;;;;;;;;;17.60;99.90;;;;;;5010297;28;20288;-78
2021/07/01 11:16:18;;;;;;;;;;;17.50;99.90;;;;;;5011073;28;19939;-78
2021/07/01 11:18:50;;;;;;;;;;;18.00;99.90;;;;;;5011426;28;19929;-77
2021/07/01 11:21:19;;;;;;;;;;;18.60;99.90;;;;;;5010748;28;20273;-77
2021/07/01 11:23:47;;;;;;;;;;;18.80;99.90;;;;;;5025907;28;19975;-77
2021/07/01 11:26:23;;;;;;;;;;;18.90;99.90;;;;;;5011687;28;19930;-78
2021/07/01 11:28:50;;;;;;;;;;;18.90;99.90;;;;;;5025711;28;19933;-77
2021/07/01 11:31:17;;;;;;;;;;;18.90;99.90;;;;;;5008321;28;21849;-77
2021/07/01 11:33:51;;;;;;;;;;;19.10;99.90;;;;;;5013534;28;19973;-77
2021/07/01 11:36:19;;;;;;;;;;;18.30;99.90;;;;;;5008771;28;19933;-77
2021/07/01 11:38:46;;;;;;;;;;;18.10;99.90;;;;;;5008837;28;20292;-77
2021/07/01 11:41:14;;;;;;;;;;;18.00;99.90;;;;;;5010119;28;19945;-77
2021/07/01 11:43:41;;;;;;;;;;;18.00;99.90;;;;;;5026789;28;19933;-81
2021/07/01 11:46:08;;;;;;;;;;;17.70;99.90;;;;;;5027608;28;20793;-79
2021/07/01 11:48:36;;;;;;;;;;;17.60;99.90;;;;;;5012155;28;20007;-81
2021/07/01 11:51:05;;;;;;;;;;;17.70;99.90;;;;;;5012523;28;19933;-81
2021/07/01 11:53:32;;;;;;;;;;;17.60;99.90;;;;;;5011647;28;19944;-81
2021/07/01 11:56:02;;;;;;;;;;;17.60;99.90;;;;;;5011710;28;19963;-79
2021/07/01 11:58:32;;;;;;;;;;;17.60;99.90;;;;;;5028272;28;20479;-78
2021/07/01 12:01:00;;;;;;;;;;;17.40;99.90;;;;;;5026459;28;19940;-80
2021/07/01 12:03:29;;;;;;;;;;;17.70;99.90;;;;;;5020424;28;19940;-77
2021/07/01 12:05:56;;;;;;;;;;;18.10;99.90;;;;;;5017161;28;19933;-82
2021/07/01 12:08:24;;;;;;;;;;;18.10;99.90;;;;;;5021171;28;20016;-83
2021/07/01 12:11:04;;;;;;;;;;;17.80;99.90;;;;;;5041961;28;20670;-81
2021/07/01 12:13:34;;;;;;;;;;;17.80;99.90;;;;;;5032031;28;20053;-83
2021/07/01 12:16:13;;;;;;;;;;;17.70;99.90;;;;;;5036188;28;19940;-83
2021/07/01 12:18:59;;;;;;;;;;;17.90;99.90;;;;;;5042114;28;20656;-83
2021/07/01 12:21:27;;;;;;;;;;;18.10;99.90;;;;;;5020735;28;19936;-82
2021/07/01 12:23:57;;;;;;;;;;;18.10;99.90;;;;;;5018528;28;19933;-82
2021/07/01 12:26:31;;;;;;;;;;;18.20;99.90;;;;;;5044018;28;19933;-82
2021/07/01 12:28:59;;;;;;;;;;;18.00;99.90;;;;;;5032659;28;19929;-82
2021/07/01 12:31:26;;;;;;;;;;;18.10;99.90;;;;;;5033889;28;19948;-83
2021/07/01 12:33:57;;;;;;;;;;;18.40;99.90;;;;;;5017904;28;20023;-82
2021/07/01 12:36:35;;;;;;;;;;;18.60;99.90;;;;;;5017867;28;19952;-80
2021/07/01 12:39:08;;;;;;;;;;;18.50;99.90;;;;;;5018754;28;19925;-83
2021/07/01 12:41:46;;;;;;;;;;;18.90;99.90;;;;;;5032934;28;20451;-80
2021/07/01 12:44:14;;;;;;;;;;;18.70;99.90;;;;;;5013879;28;19937;-79
2021/07/01 12:46:42;;;;;;;;;;;18.80;99.90;;;;;;5026400;28;19991;-80
2021/07/01 12:49:15;;;;;;;;;;;18.90;99.90;;;;;;5012037;28;20038;-81
2021/07/01 12:51:45;;;;;;;;;;;18.80;99.90;;;;;;5012638;28;19976;-82
2021/07/01 12:54:37;;;;;;;;;;;18.60;99.90;;;;;;5030844;28;20015;-78
2021/07/01 12:57:06;;;;;;;;;;;18.60;99.90;;;;;;5017784;28;19926;-81
2021/07/01 12:59:34;;;;;;;;;;;18.50;99.90;;;;;;5029462;28;20019;-79
2021/07/01 13:02:06;;;;;;;;;;;18.50;99.90;;;;;;5031639;28;19980;-80
2021/07/01 13:04:35;;;;;;;;;;;18.50;99.90;;;;;;5040194;28;19939;-80
2021/07/01 13:07:02;;;;;;;;;;;18.40;99.90;;;;;;5017057;28;19929;-72
2021/07/01 13:09:33;;;;;;;;;;;18.50;99.90;;;;;;5016255;28;20308;-76
2021/07/01 13:12:02;;;;;;;;;;;18.30;99.90;;;;;;5042461;28;20368;-76
2021/07/01 13:14:30;;;;;;;;;;;18.30;99.90;;;;;;5016746;28;19940;-76
2021/07/01 13:17:00;;;;;;;;;;;18.20;99.90;;;;;;5017449;28;20389;-76
2021/07/01 13:19:27;;;;;;;;;;;17.80;99.90;;;;;;5016397;28;19933;-76
2021/07/01 13:21:55;;;;;;;;;;;17.90;99.90;;;;;;5016368;28;19961;-76
2021/07/01 13:24:22;;;;;;;;;;;17.90;99.90;;;;;;5017565;28;19956;-76
2021/07/01 13:26:52;;;;;;;;;;;18.00;99.90;;;;;;5015670;28;19933;-77
2021/07/01 13:29:35;;;;;;;;;;;18.30;99.90;;;;;;5015930;28;19944;-79
2021/07/01 13:32:07;;;;;;;;;;;18.60;99.90;;;;;;5015386;28;19955;-77
2021/07/01 13:34:34;;;;;;;;;;;18.80;99.90;;;;;;5037342;28;19933;-76
2021/07/01 13:37:24;;;;;;;;;;;19.20;99.90;;;;;;5017299;28;19933;-76
2021/07/01 13:40:11;;;;;;;;;;;19.50;99.90;;;;;;5009561;28;19952;-77
2021/07/01 13:42:38;;;;;;;;;;;19.70;99.90;;;;;;5013526;28;19929;-76
2021/07/01 13:45:07;;;;;;;;;;;19.60;99.90;;;;;;5015962;28;19933;-78
2021/07/01 13:47:44;;;;;;;;;;;19.50;99.90;;;;;;5015489;28;19956;-77
2021/07/01 13:50:21;;;;;;;;;;;19.40;99.90;;;;;;5017526;28;19925;-77
2021/07/01 13:52:48;;;;;;;;;;;19.30;99.90;;;;;;5014725;28;20015;-77
2021/07/01 13:55:21;;;;;;;;;;;19.30;99.90;;;;;;5015927;28;20403;-77
2021/07/01 13:57:48;;;;;;;;;;;19.20;99.90;;;;;;5015574;28;19940;-77
2021/07/01 14:00:19;;;;;;;;;;;19.10;99.90;;;;;;5015127;28;19933;-77
2021/07/01 14:02:47;;;;;;;;;;;19.30;99.90;;;;;;5018830;28;19983;-77
2021/07/01 14:05:32;;;;;;;;;;;19.10;99.90;;;;;;5017917;28;19939;-76
2021/07/01 14:07:59;;;;;;;;;;;19.10;99.90;;;;;;5035199;28;19940;-77
2021/07/01 14:10:27;;;;;;;;;;;19.10;99.90;;;;;;5022839;28;19929;-76
2021/07/01 14:12:54;;;;;;;;;;;19.20;99.90;;;;;;5020237;28;19944;-77
2021/07/01 14:15:21;;;;;;;;;;;19.00;99.90;;;;;;5021702;28;19984;-77
2021/07/01 14:17:49;;;;;;;;;;;19.30;99.90;;;;;;5020898;28;19957;-77
2021/07/01 14:20:15;;;;;;;;;;;19.20;99.90;;;;;;5020513;28;19938;-76
2021/07/01 14:22:42;;;;;;;;;;;19.30;99.90;;;;;;5020854;28;19933;-76
2021/07/01 14:25:27;;;;;;;;;;;19.40;99.90;;;;;;5020853;28;19934;-77
2021/07/01 14:28:01;;;;;;;;;;;19.30;99.90;;;;;;5042272;28;19941;-76
2021/07/01 14:30:35;;;;;;;;;;;19.30;99.90;;;;;;5021777;28;21173;-76